createdAt,value
2023-11-11T00:02:03.888Z,8.23
2023-11-11T00:04:30.533Z,8.57
2023-11-11T00:06:57.102Z,7.13
2023-11-11T00:09:24.001Z,9.50
2023-11-11T00:11:51.127Z,7.15
2023-11-11T00:14:18.563Z,6.60
2023-11-11T00:16:45.197Z,8.68
2023-11-11T00:19:13.554Z,6.95
2023-11-11T00:21:43.717Z,7.68
2023-11-11T00:24:11.390Z,7.85
2023-11-11T00:26:40.244Z,8.48
2023-11-11T00:29:07.068Z,7.88
2023-11-11T00:31:35.055Z,7.93
2023-11-11T00:34:02.827Z,8.32
2023-11-11T00:36:29.476Z,8.82
2023-11-11T00:38:56.081Z,8.55
2023-11-11T00:41:22.657Z,10.55
2023-11-11T00:43:49.132Z,10.45
2023-11-11T00:46:15.711Z,8.93
2023-11-11T00:48:43.012Z,10.48
2023-11-11T00:51:09.625Z,9.57
2023-11-11T00:53:36.294Z,10.38
2023-11-11T00:56:03.794Z,10.75
2023-11-11T00:58:31.444Z,11.95
2023-11-11T01:00:58.014Z,12.25
2023-11-11T01:03:24.783Z,11.68
2023-11-11T01:05:51.467Z,13.50
2023-11-11T01:08:18.006Z,12.90
2023-11-11T01:10:44.515Z,13.35
2023-11-11T01:13:13.001Z,14.85
2023-11-11T01:15:39.821Z,15.68
2023-11-11T01:18:06.552Z,14.05
2023-11-11T01:20:33.178Z,15.48
2023-11-11T01:22:59.767Z,14.45
2023-11-11T01:25:27.238Z,13.88
2023-11-11T01:27:53.793Z,12.50
2023-11-11T01:30:21.050Z,12.95
2023-11-11T01:32:47.734Z,14.88
2023-11-11T01:35:14.329Z,13.55
2023-11-11T01:37:40.853Z,15.63
2023-11-11T01:40:08.208Z,15.90
2023-11-11T01:42:34.857Z,15.85
2023-11-11T01:45:01.405Z,15.20
2023-11-11T01:47:28.288Z,15.88
2023-11-11T01:49:55.041Z,15.25
2023-11-11T01:52:21.999Z,14.90
2023-11-11T01:54:49.476Z,18.60
2023-11-11T01:57:16.275Z,17.92
2023-11-11T01:59:42.876Z,17.90
2023-11-11T02:02:09.448Z,14.88
2023-11-11T02:04:36.230Z,17.83
2023-11-11T02:07:03.061Z,17.33
2023-11-11T02:09:29.979Z,16.55
2023-11-11T02:11:56.795Z,13.82
2023-11-11T02:14:23.818Z,18.45
2023-11-11T02:16:50.699Z,14.93
2023-11-11T02:19:17.348Z,15.38
2023-11-11T02:21:44.269Z,15.57
2023-11-11T02:24:14.227Z,15.30
2023-11-11T02:26:40.901Z,15.65
2023-11-11T02:29:07.650Z,15.05
2023-11-11T02:31:34.199Z,15.43
2023-11-11T02:34:00.809Z,17.08
2023-11-11T02:36:27.546Z,15.25
2023-11-11T02:38:54.106Z,15.57
2023-11-11T02:41:21.109Z,16.55
2023-11-11T02:43:47.555Z,15.48
2023-11-11T02:46:14.548Z,16.40
2023-11-11T02:48:41.176Z,16.48
2023-11-11T02:51:07.731Z,16.67
2023-11-11T02:53:34.289Z,13.95
2023-11-11T02:56:00.822Z,15.15
2023-11-11T02:58:27.403Z,16.90
2023-11-11T03:00:55.340Z,16.08
2023-11-11T03:03:22.643Z,15.18
2023-11-11T03:05:50.884Z,16.25
2023-11-11T03:08:17.993Z,15.77
2023-11-11T03:10:45.015Z,15.63
2023-11-11T03:13:11.752Z,18.20
2023-11-11T03:15:38.908Z,17.35
2023-11-11T03:18:05.745Z,16.15
2023-11-11T03:20:32.892Z,19.15
2023-11-11T03:22:59.468Z,18.77
2023-11-11T03:25:26.007Z,17.15
2023-11-11T03:27:52.532Z,19.45
2023-11-11T03:30:19.200Z,23.65
2023-11-11T03:32:45.793Z,20.30
2023-11-11T03:35:12.552Z,18.27
2023-11-11T03:37:39.034Z,17.25
2023-11-11T03:40:07.943Z,17.55
2023-11-11T03:42:34.494Z,18.85
2023-11-11T03:45:01.027Z,18.30
2023-11-11T03:47:27.929Z,15.70
2023-11-11T03:49:54.506Z,18.27
2023-11-11T03:52:21.012Z,16.50
2023-11-11T03:54:47.962Z,17.17
2023-11-11T03:57:14.822Z,14.93
2023-11-11T03:59:41.378Z,16.85
2023-11-11T04:02:07.918Z,15.27
2023-11-11T04:04:34.417Z,15.23
2023-11-11T04:07:00.920Z,16.25
2023-11-11T04:09:31.238Z,14.75
2023-11-11T04:11:57.845Z,14.00
2023-11-11T04:14:24.550Z,16.45
2023-11-11T04:16:51.260Z,15.93
2023-11-11T04:19:18.124Z,15.13
2023-11-11T04:21:49.541Z,15.45
2023-11-11T04:24:16.086Z,15.10
2023-11-11T04:26:42.693Z,12.63
2023-11-11T04:29:09.248Z,15.60
2023-11-11T04:31:35.786Z,17.95
2023-11-11T04:34:02.351Z,14.73
2023-11-11T04:36:28.986Z,14.48
2023-11-11T04:38:55.671Z,15.50
2023-11-11T04:41:22.408Z,15.20
2023-11-11T04:43:48.939Z,13.95
2023-11-11T04:46:15.613Z,13.73
2023-11-11T04:48:43.330Z,15.60
2023-11-11T04:51:10.013Z,16.67
2023-11-11T04:53:36.625Z,13.05
2023-11-11T04:56:04.179Z,14.45
2023-11-11T04:58:30.757Z,14.68
2023-11-11T05:00:57.350Z,13.38
2023-11-11T05:03:24.080Z,15.02
2023-11-11T05:05:50.632Z,11.60
2023-11-11T05:08:17.225Z,12.13
2023-11-11T05:10:43.896Z,12.73
2023-11-11T05:13:10.579Z,14.32
2023-11-11T05:15:44.603Z,13.13
2023-11-11T05:18:11.662Z,13.77
2023-11-11T05:20:40.645Z,15.50
2023-11-11T05:23:11.552Z,12.95
2023-11-11T05:25:38.323Z,14.60
2023-11-11T05:28:04.946Z,15.23
2023-11-11T05:30:31.829Z,11.68
2023-11-11T05:32:58.557Z,12.45
2023-11-11T05:35:25.227Z,12.90
2023-11-11T05:37:51.703Z,11.10
2023-11-11T05:40:20.066Z,10.93
2023-11-11T05:42:50.381Z,10.13
2023-11-11T05:45:18.887Z,9.05
2023-11-11T05:47:46.233Z,8.68
2023-11-11T05:50:13.169Z,9.25
2023-11-11T05:52:39.880Z,10.32
2023-11-11T05:55:09.792Z,10.23
2023-11-11T05:57:40.520Z,9.55
2023-11-11T06:00:13.103Z,10.75
2023-11-11T06:02:39.927Z,12.23
2023-11-11T06:05:07.251Z,16.25
2023-11-11T06:10:00.609Z,16.27
2023-11-11T06:12:27.441Z,17.27
2023-11-11T06:14:53.977Z,15.85
2023-11-11T06:17:20.452Z,15.23
2023-11-11T06:19:47.098Z,14.90
2023-11-11T06:22:13.614Z,16.85
2023-11-11T06:24:40.278Z,19.40
2023-11-11T06:27:10.094Z,17.25
2023-11-11T06:29:37.127Z,17.20
2023-11-11T06:32:03.877Z,16.40
2023-11-11T06:34:30.457Z,20.20
2023-11-11T06:36:57.014Z,19.05
2023-11-11T06:39:23.653Z,17.52
2023-11-11T06:41:51.045Z,17.85
2023-11-11T06:44:17.728Z,16.13
2023-11-11T06:46:44.345Z,16.48
2023-11-11T06:49:10.845Z,14.23
2023-11-11T06:51:38.013Z,17.58
2023-11-11T06:54:05.675Z,16.83
2023-11-11T06:56:32.306Z,17.33
2023-11-11T06:58:58.875Z,14.48
2023-11-11T07:01:25.534Z,16.65
2023-11-11T07:03:53.079Z,16.45
2023-11-11T07:06:24.269Z,17.67
2023-11-11T07:08:52.117Z,18.88
2023-11-11T07:11:19.371Z,18.00
2023-11-11T07:16:14.707Z,18.45
2023-11-11T07:18:42.080Z,16.95
2023-11-11T07:21:17.517Z,20.38
2023-11-11T07:23:44.323Z,17.83
2023-11-11T07:26:12.798Z,20.13
2023-11-11T07:28:39.509Z,19.73
2023-11-11T07:31:06.138Z,19.63
2023-11-11T07:33:32.662Z,20.10
2023-11-11T07:35:59.177Z,19.73
2023-11-11T07:38:25.757Z,21.60
2023-11-11T07:40:52.755Z,23.77
2023-11-11T07:43:19.296Z,20.50
2023-11-11T07:45:45.893Z,22.50
2023-11-11T07:48:12.797Z,21.05
2023-11-11T07:50:39.590Z,20.08
2023-11-11T07:53:06.190Z,18.20
2023-11-11T07:55:32.664Z,18.17
2023-11-11T08:00:28.570Z,18.10
2023-11-11T08:02:55.141Z,18.35
2023-11-11T08:05:21.740Z,15.95
2023-11-11T08:07:48.832Z,16.90
2023-11-11T08:10:15.434Z,15.93
2023-11-11T08:12:42.030Z,15.15
2023-11-11T08:15:09.068Z,14.63
2023-11-11T08:17:35.720Z,16.52
2023-11-11T08:20:03.239Z,15.65
2023-11-11T08:22:29.819Z,16.10
2023-11-11T08:24:56.529Z,15.57
2023-11-11T08:27:25.702Z,14.55
2023-11-11T08:29:52.240Z,14.63
2023-11-11T08:32:18.799Z,16.08
2023-11-11T08:34:45.626Z,15.93
2023-11-11T08:37:12.353Z,17.50
2023-11-11T08:39:38.945Z,15.82
2023-11-11T08:42:05.815Z,15.60
2023-11-11T08:44:32.334Z,16.15
2023-11-11T08:46:58.875Z,18.00
2023-11-11T08:49:25.567Z,18.50
2023-11-11T08:51:52.484Z,16.30
2023-11-11T08:54:19.179Z,15.52
2023-11-11T08:56:47.238Z,16.13
2023-11-11T08:59:15.516Z,15.75
2023-11-11T09:01:42.473Z,16.10
2023-11-11T09:04:10.248Z,15.63
2023-11-11T09:06:36.942Z,14.40
2023-11-11T09:09:04.510Z,16.65
2023-11-11T09:11:36.695Z,15.82
2023-11-11T09:14:06.678Z,15.95
2023-11-11T09:16:34.293Z,16.30
2023-11-11T09:19:01.633Z,15.35
2023-11-11T09:21:28.632Z,17.42
2023-11-11T09:23:55.271Z,16.95
2023-11-11T09:26:23.064Z,16.67
2023-11-11T09:28:50.823Z,17.25
2023-11-11T09:31:17.922Z,15.50
2023-11-11T09:33:48.585Z,12.93
2023-11-11T09:36:15.216Z,15.18
2023-11-11T09:38:41.720Z,13.95
2023-11-11T09:41:08.232Z,13.52
2023-11-11T09:43:35.052Z,12.15
2023-11-11T09:46:04.228Z,11.13
2023-11-11T09:48:32.356Z,11.98
2023-11-11T09:51:00.293Z,10.57
2023-11-11T09:53:27.890Z,13.07
2023-11-11T09:55:56.386Z,12.88
2023-11-11T09:58:26.017Z,11.90
2023-11-11T10:00:52.863Z,11.25
2023-11-11T10:03:19.700Z,13.73
2023-11-11T10:05:46.373Z,11.38
2023-11-11T10:08:12.988Z,10.10
2023-11-11T10:10:42.055Z,13.60
2023-11-11T10:13:08.899Z,13.73
2023-11-11T10:15:36.083Z,13.48
2023-11-11T10:20:32.151Z,15.85
2023-11-11T10:23:01.752Z,15.07
2023-11-11T10:25:28.347Z,17.40
2023-11-11T10:27:56.579Z,15.85
2023-11-11T10:30:28.066Z,17.48
2023-11-11T10:32:56.107Z,16.70
2023-11-11T10:35:25.761Z,18.10
2023-11-11T10:37:52.970Z,17.77
2023-11-11T10:42:49.837Z,18.00
2023-11-11T10:45:17.282Z,18.73
2023-11-11T10:47:45.384Z,22.05
2023-11-11T10:50:12.786Z,20.48
2023-11-11T10:52:41.299Z,26.23
2023-11-11T10:55:10.193Z,27.95
2023-11-11T10:57:39.924Z,27.60
2023-11-11T11:00:18.065Z,26.60
2023-11-11T11:02:48.390Z,25.92
2023-11-11T11:05:29.634Z,25.38
2023-11-11T11:08:07.318Z,27.52
2023-11-11T11:10:49.715Z,25.63
2023-11-11T11:13:19.477Z,25.08
2023-11-11T11:15:46.199Z,25.40
2023-11-11T11:18:12.982Z,22.35
2023-11-11T11:20:42.422Z,21.25
2023-11-11T11:23:12.176Z,17.92
2023-11-11T11:25:42.454Z,12.73
2023-11-11T11:28:13.095Z,12.48
2023-11-11T11:30:43.330Z,12.98
2023-11-11T11:33:20.511Z,10.18
2023-11-11T11:35:51.864Z,9.18
2023-11-11T11:42:23.341Z,10.15
2023-11-11T11:44:57.534Z,11.98
2023-11-11T11:47:34.139Z,9.18
2023-11-11T11:50:02.028Z,11.13
2023-11-11T11:52:28.635Z,9.07
2023-11-11T11:54:55.904Z,8.90
2023-11-11T12:00:17.013Z,8.82
2023-11-11T12:02:43.796Z,9.70
2023-11-11T12:05:11.573Z,8.88
2023-11-11T12:07:38.863Z,9.35
2023-11-11T12:10:15.119Z,7.90
2023-11-11T12:12:44.376Z,9.27
2023-11-11T12:15:12.220Z,8.07
2023-11-11T12:17:43.801Z,9.23
2023-11-11T12:20:16.773Z,10.10
2023-11-11T12:22:49.349Z,10.85
2023-11-11T12:25:16.319Z,10.63
2023-11-11T12:27:45.665Z,11.38
2023-11-11T12:30:22.981Z,11.18
2023-11-11T12:33:06.318Z,12.35
2023-11-11T12:35:38.967Z,13.05
2023-11-11T12:38:20.934Z,13.23
2023-11-11T12:40:49.169Z,10.57
2023-11-11T12:43:17.155Z,9.82
2023-11-11T12:46:02.559Z,10.13
2023-11-11T12:48:30.608Z,10.80
2023-11-11T12:50:57.177Z,12.70
2023-11-11T12:53:23.669Z,11.15
2023-11-11T12:56:06.399Z,11.32
2023-11-11T12:58:33.738Z,10.88
2023-11-11T13:01:05.596Z,10.10
2023-11-11T13:03:33.491Z,11.70
2023-11-11T13:06:01.729Z,10.27
2023-11-11T13:08:29.839Z,11.02
2023-11-11T13:10:58.702Z,13.38
2023-11-11T13:13:25.458Z,11.70
2023-11-11T13:15:53.088Z,11.77
2023-11-11T13:18:20.682Z,11.38
2023-11-11T13:20:48.065Z,11.35
2023-11-11T13:23:20.523Z,12.35
2023-11-11T13:25:52.315Z,10.55
2023-11-11T13:28:19.293Z,9.43
2023-11-11T13:30:48.382Z,11.60
2023-11-11T13:33:15.481Z,10.38
2023-11-11T13:38:17.693Z,10.55
2023-11-11T13:40:47.716Z,10.77
2023-11-11T13:43:15.770Z,10.30
2023-11-11T13:45:43.331Z,12.32
2023-11-11T13:48:11.137Z,12.43
2023-11-11T13:50:37.718Z,12.23
2023-11-11T13:53:05.877Z,11.82
2023-11-11T13:55:32.914Z,12.07
2023-11-11T13:58:01.613Z,10.70
2023-11-11T14:00:29.181Z,11.52
2023-11-11T14:03:00.492Z,11.70
2023-11-11T14:05:27.941Z,8.10
2023-11-11T14:07:55.645Z,6.80
2023-11-11T14:10:28.610Z,6.68
2023-11-11T14:12:56.503Z,5.63
2023-11-11T14:15:31.598Z,7.22
2023-11-11T14:17:58.903Z,5.90
2023-11-11T14:20:25.914Z,7.35
2023-11-11T14:22:59.088Z,5.82
2023-11-11T14:25:27.925Z,6.07
2023-11-11T14:27:55.761Z,7.57
2023-11-11T14:30:24.893Z,6.60
2023-11-11T14:32:53.465Z,6.60
2023-11-11T14:35:21.894Z,8.77
2023-11-11T14:37:48.976Z,8.35
2023-11-11T14:40:18.825Z,6.78
2023-11-11T14:42:50.155Z,7.75
2023-11-11T14:45:18.204Z,11.38
2023-11-11T14:47:46.676Z,8.57
2023-11-11T14:50:14.976Z,8.45
2023-11-11T14:52:42.854Z,8.13
2023-11-11T14:55:18.225Z,9.00
2023-11-11T14:57:46.313Z,8.95
2023-11-11T15:00:28.614Z,9.30
2023-11-11T15:02:57.767Z,11.43
2023-11-11T15:05:25.526Z,7.55
2023-11-11T15:07:52.432Z,8.05
2023-11-11T15:10:21.094Z,6.20
2023-11-11T15:12:52.108Z,6.07
2023-11-11T15:15:19.020Z,6.35
2023-11-11T15:17:46.944Z,7.00
2023-11-11T15:20:19.859Z,5.07
2023-11-11T15:22:53.547Z,5.35
2023-11-11T15:27:51.002Z,5.25
2023-11-11T15:30:20.495Z,5.00
2023-11-11T15:32:47.992Z,6.18
2023-11-11T15:35:16.171Z,4.80
2023-11-11T15:37:42.928Z,5.70
2023-11-11T15:40:10.205Z,4.80
2023-11-11T15:45:05.005Z,4.93
2023-11-11T15:47:31.624Z,5.20
2023-11-11T15:49:59.578Z,5.07
2023-11-11T15:52:28.260Z,5.38
2023-11-11T15:54:54.867Z,4.32
2023-11-11T15:57:21.470Z,4.95
2023-11-11T15:59:47.963Z,3.10
2023-11-11T16:02:15.153Z,3.70
2023-11-11T16:04:42.039Z,4.32
2023-11-11T16:07:08.692Z,4.03
2023-11-11T16:09:35.143Z,3.28
2023-11-11T16:12:01.706Z,3.10
2023-11-11T16:14:31.464Z,3.00
2023-11-11T16:17:02.091Z,3.15
2023-11-11T16:19:28.741Z,2.85
2023-11-11T16:21:55.289Z,2.55
2023-11-11T16:24:27.261Z,3.30
2023-11-11T16:26:55.202Z,3.05
2023-11-11T16:29:21.981Z,3.30
2023-11-11T16:31:48.513Z,4.15
2023-11-11T16:34:20.215Z,3.22
2023-11-11T16:36:46.782Z,2.45
2023-11-11T16:39:16.819Z,2.30
2023-11-11T16:41:48.285Z,3.00
2023-11-11T16:44:14.975Z,3.72
2023-11-11T16:46:41.649Z,3.65
2023-11-11T16:49:09.623Z,2.63
2023-11-11T16:51:36.440Z,4.30
2023-11-11T16:54:04.947Z,3.33
2023-11-11T16:56:32.275Z,2.40
2023-11-11T17:01:25.622Z,2.60
2023-11-11T17:03:54.969Z,2.05
2023-11-11T17:06:23.505Z,2.67
2023-11-11T17:08:50.913Z,2.95
2023-11-11T17:11:17.848Z,2.83
2023-11-11T17:13:45.072Z,2.60
2023-11-11T17:23:32.740Z,3.63
2023-11-11T17:26:00.139Z,3.40
2023-11-11T17:28:30.371Z,2.63
2023-11-11T17:30:57.895Z,2.90
2023-11-11T17:36:09.072Z,2.10
2023-11-11T17:38:38.394Z,2.95
2023-11-11T17:41:08.076Z,2.50
2023-11-11T17:43:34.664Z,2.45
2023-11-11T17:46:01.228Z,2.08
2023-11-11T17:48:27.965Z,2.50
2023-11-11T17:50:56.009Z,3.15
2023-11-11T17:53:22.642Z,4.38
2023-11-11T17:55:49.249Z,3.92
2023-11-11T17:58:16.001Z,2.78
2023-11-11T18:00:42.499Z,3.30
2023-11-11T18:03:09.614Z,3.55
2023-11-11T18:05:36.269Z,2.30
2023-11-11T18:08:03.376Z,2.38
2023-11-11T18:12:57.722Z,2.47
2023-11-11T18:15:26.107Z,2.22
2023-11-11T18:17:53.100Z,2.08
2023-11-11T18:20:20.205Z,2.00
2023-11-11T18:22:47.237Z,1.83
2023-11-11T18:25:14.183Z,1.70
2023-11-11T18:27:40.830Z,2.55
2023-11-11T18:30:08.278Z,4.05
2023-11-11T18:32:34.965Z,2.83
2023-11-11T18:35:02.091Z,2.22
2023-11-11T18:37:28.828Z,1.45
2023-11-11T18:39:55.690Z,2.38
2023-11-11T18:42:22.523Z,2.45
2023-11-11T18:44:49.225Z,3.45
2023-11-11T18:47:16.320Z,2.78
2023-11-11T18:49:43.765Z,2.97
2023-11-11T18:52:11.442Z,2.47
2023-11-11T18:54:38.204Z,2.67
2023-11-11T18:57:04.990Z,3.58
2023-11-11T18:59:32.495Z,3.05
2023-11-11T19:01:59.181Z,2.50
2023-11-11T19:04:25.853Z,2.25
2023-11-11T19:06:52.798Z,2.22
2023-11-11T19:09:19.474Z,2.05
2023-11-11T19:11:46.286Z,1.73
2023-11-11T19:14:13.880Z,6.65
2023-11-11T19:16:42.221Z,3.08
2023-11-11T19:19:11.878Z,2.42
2023-11-11T19:21:39.252Z,2.80
2023-11-11T19:24:10.384Z,3.20
2023-11-11T19:26:40.859Z,2.72
2023-11-11T19:29:08.905Z,2.78
2023-11-11T19:31:35.744Z,3.35
2023-11-11T19:34:03.197Z,3.38
2023-11-11T19:36:30.478Z,3.58
2023-11-11T19:41:24.184Z,2.47
2023-11-11T19:43:51.135Z,3.05
2023-11-11T19:46:18.831Z,2.58
2023-11-11T19:48:46.549Z,2.53
2023-11-11T19:51:21.389Z,3.28
2023-11-11T19:53:47.944Z,2.80
2023-11-11T19:56:15.152Z,3.08
2023-11-11T19:58:41.893Z,5.03
2023-11-11T20:01:09.052Z,4.03
2023-11-11T20:03:36.003Z,3.70
2023-11-11T20:06:02.697Z,5.13
2023-11-11T20:08:29.315Z,3.90
2023-11-11T20:10:56.400Z,2.97
2023-11-11T20:13:23.690Z,2.35
2023-11-11T20:18:16.669Z,2.90
2023-11-11T20:20:43.727Z,2.40
2023-11-11T20:23:10.501Z,2.53
2023-11-11T20:25:37.639Z,2.75
2023-11-11T20:28:04.395Z,2.55
2023-11-11T20:30:32.132Z,3.10
2023-11-11T20:33:00.666Z,2.08
2023-11-11T20:35:30.266Z,2.45
2023-11-11T20:37:57.440Z,1.90
2023-11-11T20:40:24.382Z,2.50
2023-11-11T20:42:52.683Z,2.75
2023-11-11T20:45:19.255Z,2.97
2023-11-11T20:47:45.785Z,3.20
2023-11-11T20:50:15.047Z,2.33
2023-11-11T20:52:45.963Z,2.40
2023-11-11T20:55:14.655Z,2.88
2023-11-11T20:57:44.999Z,2.75
2023-11-11T21:00:13.499Z,4.05
2023-11-11T21:02:43.668Z,3.33
2023-11-11T21:05:17.080Z,2.40
2023-11-11T21:07:46.812Z,3.05
2023-11-11T21:10:19.727Z,3.08
2023-11-11T21:12:48.697Z,3.63
2023-11-11T21:15:20.333Z,2.97
2023-11-11T21:17:47.580Z,2.75
2023-11-11T21:20:16.369Z,4.07
2023-11-11T21:22:43.473Z,4.35
2023-11-11T21:25:10.738Z,4.68
2023-11-11T21:30:05.406Z,4.68
2023-11-11T21:32:33.364Z,5.35
2023-11-11T21:35:00.026Z,5.65
2023-11-11T21:37:26.675Z,5.53
2023-11-11T21:39:53.187Z,4.22
2023-11-11T21:42:26.497Z,4.57
2023-11-11T21:44:53.455Z,6.47
2023-11-11T21:47:20.004Z,3.72
2023-11-11T21:49:46.598Z,4.70
2023-11-11T21:52:15.363Z,5.32
2023-11-11T21:54:42.517Z,4.65
2023-11-11T21:57:09.062Z,3.15
2023-11-11T21:59:35.593Z,4.30
2023-11-11T22:02:02.192Z,3.08
2023-11-11T22:04:28.768Z,3.28
2023-11-11T22:06:55.472Z,3.22
2023-11-11T22:09:21.972Z,3.35
2023-11-11T22:11:48.522Z,2.83
2023-11-11T22:14:15.101Z,2.42
2023-11-11T22:16:41.834Z,3.05
2023-11-11T22:19:08.668Z,2.50
2023-11-11T22:21:35.127Z,4.63
2023-11-11T22:24:01.689Z,3.78
2023-11-11T22:26:28.744Z,2.80
2023-11-11T22:28:55.620Z,2.92
2023-11-11T22:31:22.317Z,2.90
2023-11-11T22:33:48.980Z,3.03
2023-11-11T22:36:15.967Z,3.58
2023-11-11T22:38:42.458Z,3.85
2023-11-11T22:41:09.171Z,2.35
2023-11-11T22:43:35.865Z,3.22
2023-11-11T22:46:03.940Z,2.28
2023-11-11T22:48:31.090Z,3.10
2023-11-11T22:50:58.886Z,2.90
2023-11-11T22:53:26.257Z,2.83
2023-11-11T22:55:53.181Z,2.95
2023-11-11T22:58:20.508Z,2.67
2023-11-11T23:00:47.981Z,3.72
2023-11-11T23:05:47.289Z,3.17
2023-11-11T23:08:15.400Z,3.90
2023-11-11T23:10:44.576Z,4.85
2023-11-11T23:13:12.171Z,4.47
2023-11-11T23:15:40.219Z,3.17
2023-11-11T23:18:10.446Z,3.47
2023-11-11T23:20:40.097Z,2.33
2023-11-11T23:23:06.865Z,4.53
2023-11-11T23:25:33.641Z,2.88
2023-11-11T23:28:00.388Z,3.47
2023-11-11T23:30:27.511Z,4.30
2023-11-11T23:32:54.628Z,4.20
2023-11-11T23:35:21.398Z,2.88
2023-11-11T23:37:49.098Z,3.42
2023-11-11T23:40:15.899Z,3.13
2023-11-11T23:42:43.092Z,3.80
2023-11-11T23:47:37.337Z,2.95
2023-11-11T23:50:07.848Z,2.88
2023-11-11T23:52:34.694Z,2.67
2023-11-11T23:55:01.357Z,2.88
2023-11-11T23:57:27.836Z,3.92
2023-11-11T23:59:55.009Z,6.07
